sensor_id;sensor_type;location;lat;lon;timestamp;P1;durP1;ratioP1;P2;durP2;ratioP2
58518;SDS011;44310;48.106;12.008;2023-03-01T00:01:16;7.28;;;1.88;;
58518;SDS011;44310;48.106;12.008;2023-03-01T00:03:44;3.55;;;1.50;;
58518;SDS011;44310;48.106;12.008;2023-03-01T00:06:12;8.82;;;2.10;;
58518;SDS011;44310;48.106;12.008;2023-03-01T00:08:39;5.05;;;1.90;;
58518;SDS011;44310;48.106;12.008;2023-03-01T00:11:11;4.77;;;1.63;;
58518;SDS011;44310;48.106;12.008;2023-03-01T00:13:46;4.25;;;1.50;;
58518;SDS011;44310;48.106;12.008;2023-03-01T00:16:17;3.70;;;1.50;;
58518;SDS011;44310;48.106;12.008;2023-03-01T00:18:49;2.90;;;1.20;;
58518;SDS011;44310;48.106;12.008;2023-03-01T00:21:17;2.92;;;1.50;;
58518;SDS011;44310;48.106;12.008;2023-03-01T00:23:46;2.23;;;1.13;;
58518;SDS011;44310;48.106;12.008;2023-03-01T00:26:15;1.98;;;1.20;;
58518;SDS011;44310;48.106;12.008;2023-03-01T00:28:43;1.40;;;1.10;;
58518;SDS011;44310;48.106;12.008;2023-03-01T00:31:12;5.60;;;1.55;;
58518;SDS011;44310;48.106;12.008;2023-03-01T00:33:41;3.05;;;1.27;;
58518;SDS011;44310;48.106;12.008;2023-03-01T00:36:09;12.45;;;2.80;;
58518;SDS011;44310;48.106;12.008;2023-03-01T00:38:41;5.50;;;1.67;;
58518;SDS011;44310;48.106;12.008;2023-03-01T00:41:11;3.03;;;1.30;;
58518;SDS011;44310;48.106;12.008;2023-03-01T00:43:40;2.95;;;1.40;;
58518;SDS011;44310;48.106;12.008;2023-03-01T00:46:10;4.35;;;1.50;;
58518;SDS011;44310;48.106;12.008;2023-03-01T00:48:42;5.75;;;1.55;;
58518;SDS011;44310;48.106;12.008;2023-03-01T00:53:38;5.60;;;1.83;;
58518;SDS011;44310;48.106;12.008;2023-03-01T00:56:06;7.05;;;1.77;;
58518;SDS011;44310;48.106;12.008;2023-03-01T00:58:35;8.05;;;2.10;;
58518;SDS011;44310;48.106;12.008;2023-03-01T01:01:10;3.58;;;1.40;;
58518;SDS011;44310;48.106;12.008;2023-03-01T01:03:44;6.80;;;1.85;;
58518;SDS011;44310;48.106;12.008;2023-03-01T01:06:17;4.15;;;1.40;;
58518;SDS011;44310;48.106;12.008;2023-03-01T01:08:46;4.32;;;1.50;;
58518;SDS011;44310;48.106;12.008;2023-03-01T01:11:14;3.83;;;1.40;;
58518;SDS011;44310;48.106;12.008;2023-03-01T01:13:43;3.33;;;1.25;;
58518;SDS011;44310;48.106;12.008;2023-03-01T01:16:12;2.92;;;1.10;;
58518;SDS011;44310;48.106;12.008;2023-03-01T01:18:40;2.50;;;1.27;;
58518;SDS011;44310;48.106;12.008;2023-03-01T01:21:08;1.52;;;1.05;;
58518;SDS011;44310;48.106;12.008;2023-03-01T01:23:41;2.80;;;1.38;;
58518;SDS011;44310;48.106;12.008;2023-03-01T01:26:10;2.58;;;1.17;;
58518;SDS011;44310;48.106;12.008;2023-03-01T01:28:39;4.10;;;1.10;;
58518;SDS011;44310;48.106;12.008;2023-03-01T01:31:07;10.63;;;2.47;;
58518;SDS011;44310;48.106;12.008;2023-03-01T01:33:34;3.30;;;1.20;;
58518;SDS011;44310;48.106;12.008;2023-03-01T01:36:01;3.13;;;1.30;;
58518;SDS011;44310;48.106;12.008;2023-03-01T01:38:29;2.97;;;1.27;;
58518;SDS011;44310;48.106;12.008;2023-03-01T01:40:56;2.20;;;1.13;;
58518;SDS011;44310;48.106;12.008;2023-03-01T01:43:25;3.63;;;1.27;;
58518;SDS011;44310;48.106;12.008;2023-03-01T01:46:12;2.13;;;1.15;;
58518;SDS011;44310;48.106;12.008;2023-03-01T01:48:53;2.50;;;1.08;;
58518;SDS011;44310;48.106;12.008;2023-03-01T01:51:45;2.83;;;1.10;;
58518;SDS011;44310;48.106;12.008;2023-03-01T01:54:16;1.88;;;1.13;;
58518;SDS011;44310;48.106;12.008;2023-03-01T01:57:07;2.85;;;1.15;;
58518;SDS011;44310;48.106;12.008;2023-03-01T01:59:39;2.35;;;1.10;;
58518;SDS011;44310;48.106;12.008;2023-03-01T02:02:09;2.38;;;1.20;;
58518;SDS011;44310;48.106;12.008;2023-03-01T02:04:37;3.63;;;1.35;;
58518;SDS011;44310;48.106;12.008;2023-03-01T02:07:10;2.22;;;1.00;;
58518;SDS011;44310;48.106;12.008;2023-03-01T02:09:48;4.43;;;1.42;;
58518;SDS011;44310;48.106;12.008;2023-03-01T02:12:19;4.75;;;1.40;;
58518;SDS011;44310;48.106;12.008;2023-03-01T02:14:49;3.83;;;1.38;;
58518;SDS011;44310;48.106;12.008;2023-03-01T02:17:17;4.22;;;1.40;;
58518;SDS011;44310;48.106;12.008;2023-03-01T02:19:55;8.10;;;1.90;;
58518;SDS011;44310;48.106;12.008;2023-03-01T02:23:01;7.10;;;2.00;;
58518;SDS011;44310;48.106;12.008;2023-03-01T02:25:33;5.43;;;1.60;;
58518;SDS011;44310;48.106;12.008;2023-03-01T02:30:47;7.45;;;2.03;;
58518;SDS011;44310;48.106;12.008;2023-03-01T02:33:52;5.47;;;1.75;;
58518;SDS011;44310;48.106;12.008;2023-03-01T02:36:24;7.22;;;1.92;;
58518;SDS011;44310;48.106;12.008;2023-03-01T02:38:57;6.65;;;1.80;;
58518;SDS011;44310;48.106;12.008;2023-03-01T02:41:26;7.07;;;1.67;;
58518;SDS011;44310;48.106;12.008;2023-03-01T02:43:57;4.32;;;1.48;;
58518;SDS011;44310;48.106;12.008;2023-03-01T02:46:25;4.50;;;1.55;;
58518;SDS011;44310;48.106;12.008;2023-03-01T02:48:54;5.45;;;1.50;;
58518;SDS011;44310;48.106;12.008;2023-03-01T02:51:42;3.85;;;1.20;;
58518;SDS011;44310;48.106;12.008;2023-03-01T02:56:52;3.20;;;1.10;;
58518;SDS011;44310;48.106;12.008;2023-03-01T02:59:20;3.22;;;1.20;;
58518;SDS011;44310;48.106;12.008;2023-03-01T03:01:51;4.17;;;1.17;;
58518;SDS011;44310;48.106;12.008;2023-03-01T03:04:18;10.33;;;2.60;;
58518;SDS011;44310;48.106;12.008;2023-03-01T03:06:48;7.03;;;1.58;;
58518;SDS011;44310;48.106;12.008;2023-03-01T03:09:17;5.47;;;1.45;;
58518;SDS011;44310;48.106;12.008;2023-03-01T03:11:44;3.33;;;1.40;;
58518;SDS011;44310;48.106;12.008;2023-03-01T03:14:12;3.97;;;1.40;;
58518;SDS011;44310;48.106;12.008;2023-03-01T03:16:42;2.90;;;1.40;;
58518;SDS011;44310;48.106;12.008;2023-03-01T03:19:15;2.95;;;1.33;;
58518;SDS011;44310;48.106;12.008;2023-03-01T03:21:43;2.80;;;1.30;;
58518;SDS011;44310;48.106;12.008;2023-03-01T03:24:11;3.28;;;1.40;;
58518;SDS011;44310;48.106;12.008;2023-03-01T03:26:38;2.27;;;1.20;;
58518;SDS011;44310;48.106;12.008;2023-03-01T03:29:05;3.40;;;1.30;;
58518;SDS011;44310;48.106;12.008;2023-03-01T03:31:32;3.33;;;1.13;;
58518;SDS011;44310;48.106;12.008;2023-03-01T03:34:00;2.90;;;1.10;;
58518;SDS011;44310;48.106;12.008;2023-03-01T03:36:27;2.20;;;1.20;;
58518;SDS011;44310;48.106;12.008;2023-03-01T03:38:55;1.83;;;1.10;;
58518;SDS011;44310;48.106;12.008;2023-03-01T03:41:22;2.05;;;1.20;;
58518;SDS011;44310;48.106;12.008;2023-03-01T03:43:49;3.30;;;1.30;;
58518;SDS011;44310;48.106;12.008;2023-03-01T03:46:16;3.83;;;1.47;;
58518;SDS011;44310;48.106;12.008;2023-03-01T03:48:44;3.13;;;1.20;;
58518;SDS011;44310;48.106;12.008;2023-03-01T03:51:13;3.30;;;1.35;;
58518;SDS011;44310;48.106;12.008;2023-03-01T03:53:41;4.82;;;1.50;;
58518;SDS011;44310;48.106;12.008;2023-03-01T03:56:09;3.97;;;1.58;;
58518;SDS011;44310;48.106;12.008;2023-03-01T03:58:37;5.07;;;1.40;;
58518;SDS011;44310;48.106;12.008;2023-03-01T04:01:04;3.13;;;1.30;;
58518;SDS011;44310;48.106;12.008;2023-03-01T04:03:32;3.87;;;1.40;;
58518;SDS011;44310;48.106;12.008;2023-03-01T04:06:01;3.08;;;1.20;;
58518;SDS011;44310;48.106;12.008;2023-03-01T04:08:29;3.17;;;1.20;;
58518;SDS011;44310;48.106;12.008;2023-03-01T04:10:57;1.83;;;1.05;;
58518;SDS011;44310;48.106;12.008;2023-03-01T04:13:27;2.47;;;1.00;;
58518;SDS011;44310;48.106;12.008;2023-03-01T04:15:54;2.88;;;1.10;;
58518;SDS011;44310;48.106;12.008;2023-03-01T04:18:22;2.97;;;1.20;;
58518;SDS011;44310;48.106;12.008;2023-03-01T04:20:52;2.40;;;1.20;;
58518;SDS011;44310;48.106;12.008;2023-03-01T04:23:21;3.00;;;1.20;;
58518;SDS011;44310;48.106;12.008;2023-03-01T04:25:53;3.60;;;1.25;;
58518;SDS011;44310;48.106;12.008;2023-03-01T04:28:25;2.30;;;1.10;;
58518;SDS011;44310;48.106;12.008;2023-03-01T04:31:07;1.67;;;1.00;;
58518;SDS011;44310;48.106;12.008;2023-03-01T04:33:51;2.42;;;1.00;;
58518;SDS011;44310;48.106;12.008;2023-03-01T04:36:21;2.40;;;0.90;;
58518;SDS011;44310;48.106;12.008;2023-03-01T04:38:50;2.50;;;1.17;;
58518;SDS011;44310;48.106;12.008;2023-03-01T04:41:20;1.90;;;0.90;;
58518;SDS011;44310;48.106;12.008;2023-03-01T04:43:48;1.27;;;0.93;;
58518;SDS011;44310;48.106;12.008;2023-03-01T04:46:16;1.10;;;1.00;;
58518;SDS011;44310;48.106;12.008;2023-03-01T04:48:46;1.50;;;0.88;;
58518;SDS011;44310;48.106;12.008;2023-03-01T04:51:14;0.93;;;0.80;;
58518;SDS011;44310;48.106;12.008;2023-03-01T04:53:42;1.02;;;0.80;;
58518;SDS011;44310;48.106;12.008;2023-03-01T04:56:09;1.75;;;1.00;;
58518;SDS011;44310;48.106;12.008;2023-03-01T04:58:37;2.45;;;1.20;;
58518;SDS011;44310;48.106;12.008;2023-03-01T05:01:08;2.67;;;1.13;;
58518;SDS011;44310;48.106;12.008;2023-03-01T05:03:44;2.95;;;1.20;;
58518;SDS011;44310;48.106;12.008;2023-03-01T05:06:14;2.33;;;1.20;;
58518;SDS011;44310;48.106;12.008;2023-03-01T05:08:42;3.37;;;1.10;;
58518;SDS011;44310;48.106;12.008;2023-03-01T05:11:09;4.38;;;1.60;;
58518;SDS011;44310;48.106;12.008;2023-03-01T05:13:38;2.75;;;1.05;;
58518;SDS011;44310;48.106;12.008;2023-03-01T05:16:06;2.85;;;1.20;;
58518;SDS011;44310;48.106;12.008;2023-03-01T05:18:38;3.67;;;1.70;;
58518;SDS011;44310;48.106;12.008;2023-03-01T05:21:10;4.25;;;1.40;;
58518;SDS011;44310;48.106;12.008;2023-03-01T05:23:39;3.47;;;1.52;;
58518;SDS011;44310;48.106;12.008;2023-03-01T05:26:06;3.47;;;1.20;;
58518;SDS011;44310;48.106;12.008;2023-03-01T05:28:51;2.90;;;1.30;;
58518;SDS011;44310;48.106;12.008;2023-03-01T05:31:18;2.83;;;1.33;;
58518;SDS011;44310;48.106;12.008;2023-03-01T05:33:45;6.88;;;1.83;;
58518;SDS011;44310;48.106;12.008;2023-03-01T05:36:12;4.00;;;1.27;;
58518;SDS011;44310;48.106;12.008;2023-03-01T05:38:40;3.67;;;1.30;;
58518;SDS011;44310;48.106;12.008;2023-03-01T05:41:13;1.95;;;1.27;;
58518;SDS011;44310;48.106;12.008;2023-03-01T05:43:41;7.10;;;2.08;;
58518;SDS011;44310;48.106;12.008;2023-03-01T05:46:10;9.67;;;2.27;;
58518;SDS011;44310;48.106;12.008;2023-03-01T05:48:38;6.47;;;2.00;;
58518;SDS011;44310;48.106;12.008;2023-03-01T05:51:06;7.87;;;2.00;;
58518;SDS011;44310;48.106;12.008;2023-03-01T05:53:33;5.15;;;1.70;;
58518;SDS011;44310;48.106;12.008;2023-03-01T05:56:02;4.18;;;1.48;;
58518;SDS011;44310;48.106;12.008;2023-03-01T05:58:30;5.68;;;1.55;;
58518;SDS011;44310;48.106;12.008;2023-03-01T06:00:57;4.18;;;1.42;;
58518;SDS011;44310;48.106;12.008;2023-03-01T06:03:25;3.88;;;1.60;;
58518;SDS011;44310;48.106;12.008;2023-03-01T06:05:56;5.97;;;1.73;;
58518;SDS011;44310;48.106;12.008;2023-03-01T06:08:26;2.53;;;1.30;;
58518;SDS011;44310;48.106;12.008;2023-03-01T06:10:53;3.53;;;1.38;;
58518;SDS011;44310;48.106;12.008;2023-03-01T06:13:21;4.07;;;1.40;;
58518;SDS011;44310;48.106;12.008;2023-03-01T06:15:49;2.35;;;1.40;;
58518;SDS011;44310;48.106;12.008;2023-03-01T06:18:17;4.10;;;1.60;;
58518;SDS011;44310;48.106;12.008;2023-03-01T06:20:44;6.55;;;2.17;;
58518;SDS011;44310;48.106;12.008;2023-03-01T06:23:11;7.57;;;2.25;;
58518;SDS011;44310;48.106;12.008;2023-03-01T06:25:38;4.97;;;1.80;;
58518;SDS011;44310;48.106;12.008;2023-03-01T06:28:05;5.10;;;1.80;;
58518;SDS011;44310;48.106;12.008;2023-03-01T06:30:32;7.57;;;2.03;;
58518;SDS011;44310;48.106;12.008;2023-03-01T06:32:59;9.80;;;2.80;;
58518;SDS011;44310;48.106;12.008;2023-03-01T06:35:29;6.07;;;2.17;;
58518;SDS011;44310;48.106;12.008;2023-03-01T06:37:58;8.18;;;2.35;;
58518;SDS011;44310;48.106;12.008;2023-03-01T06:40:26;7.70;;;2.22;;
58518;SDS011;44310;48.106;12.008;2023-03-01T06:42:54;11.73;;;2.50;;
58518;SDS011;44310;48.106;12.008;2023-03-01T06:45:21;6.03;;;2.00;;
58518;SDS011;44310;48.106;12.008;2023-03-01T06:47:48;6.07;;;1.75;;
58518;SDS011;44310;48.106;12.008;2023-03-01T06:50:16;6.40;;;1.98;;
58518;SDS011;44310;48.106;12.008;2023-03-01T06:52:43;8.50;;;2.05;;
58518;SDS011;44310;48.106;12.008;2023-03-01T06:55:13;11.63;;;2.77;;
58518;SDS011;44310;48.106;12.008;2023-03-01T06:57:40;15.02;;;2.90;;
58518;SDS011;44310;48.106;12.008;2023-03-01T07:00:07;9.65;;;2.58;;
58518;SDS011;44310;48.106;12.008;2023-03-01T07:02:35;10.95;;;2.30;;
58518;SDS011;44310;48.106;12.008;2023-03-01T07:05:02;7.95;;;2.17;;
58518;SDS011;44310;48.106;12.008;2023-03-01T07:07:29;6.97;;;2.63;;
58518;SDS011;44310;48.106;12.008;2023-03-01T07:09:57;8.88;;;2.53;;
58518;SDS011;44310;48.106;12.008;2023-03-01T07:12:24;8.27;;;2.65;;
58518;SDS011;44310;48.106;12.008;2023-03-01T07:14:51;7.40;;;2.40;;
58518;SDS011;44310;48.106;12.008;2023-03-01T07:17:18;11.97;;;2.53;;
58518;SDS011;44310;48.106;12.008;2023-03-01T07:19:45;7.78;;;2.40;;
58518;SDS011;44310;48.106;12.008;2023-03-01T07:22:12;10.10;;;2.50;;
58518;SDS011;44310;48.106;12.008;2023-03-01T07:24:40;11.38;;;2.92;;
58518;SDS011;44310;48.106;12.008;2023-03-01T07:27:08;6.35;;;2.00;;
58518;SDS011;44310;48.106;12.008;2023-03-01T07:29:35;7.57;;;2.10;;
58518;SDS011;44310;48.106;12.008;2023-03-01T07:32:05;8.27;;;1.75;;
58518;SDS011;44310;48.106;12.008;2023-03-01T07:34:33;27.58;;;5.90;;
58518;SDS011;44310;48.106;12.008;2023-03-01T07:37:00;16.83;;;4.33;;
58518;SDS011;44310;48.106;12.008;2023-03-01T07:39:27;12.97;;;3.70;;
58518;SDS011;44310;48.106;12.008;2023-03-01T07:41:54;17.52;;;4.15;;
58518;SDS011;44310;48.106;12.008;2023-03-01T07:44:21;11.48;;;3.50;;
58518;SDS011;44310;48.106;12.008;2023-03-01T07:46:48;16.00;;;3.58;;
58518;SDS011;44310;48.106;12.008;2023-03-01T07:49:15;11.30;;;3.17;;
58518;SDS011;44310;48.106;12.008;2023-03-01T07:51:43;10.68;;;2.75;;
58518;SDS011;44310;48.106;12.008;2023-03-01T07:54:11;8.80;;;2.80;;
58518;SDS011;44310;48.106;12.008;2023-03-01T07:56:38;10.27;;;2.30;;
58518;SDS011;44310;48.106;12.008;2023-03-01T07:59:05;8.93;;;2.30;;
58518;SDS011;44310;48.106;12.008;2023-03-01T08:01:32;3.88;;;1.90;;
58518;SDS011;44310;48.106;12.008;2023-03-01T08:03:59;9.10;;;2.20;;
58518;SDS011;44310;48.106;12.008;2023-03-01T08:06:26;5.55;;;2.08;;
58518;SDS011;44310;48.106;12.008;2023-03-01T08:08:54;5.35;;;1.90;;
58518;SDS011;44310;48.106;12.008;2023-03-01T08:11:21;5.65;;;1.98;;
58518;SDS011;44310;48.106;12.008;2023-03-01T08:13:49;5.43;;;2.20;;
58518;SDS011;44310;48.106;12.008;2023-03-01T08:16:19;4.97;;;2.00;;
58518;SDS011;44310;48.106;12.008;2023-03-01T08:18:46;5.22;;;2.00;;
58518;SDS011;44310;48.106;12.008;2023-03-01T08:21:14;6.18;;;1.88;;
58518;SDS011;44310;48.106;12.008;2023-03-01T08:23:43;4.88;;;1.80;;
58518;SDS011;44310;48.106;12.008;2023-03-01T08:26:16;5.80;;;2.00;;
58518;SDS011;44310;48.106;12.008;2023-03-01T08:28:45;8.15;;;2.55;;
58518;SDS011;44310;48.106;12.008;2023-03-01T08:31:23;8.13;;;2.20;;
58518;SDS011;44310;48.106;12.008;2023-03-01T08:33:53;6.10;;;2.10;;
58518;SDS011;44310;48.106;12.008;2023-03-01T08:36:23;5.18;;;2.10;;
58518;SDS011;44310;48.106;12.008;2023-03-01T08:38:55;5.75;;;1.90;;
58518;SDS011;44310;48.106;12.008;2023-03-01T08:41:23;4.93;;;1.60;;
58518;SDS011;44310;48.106;12.008;2023-03-01T08:43:50;3.55;;;1.52;;
58518;SDS011;44310;48.106;12.008;2023-03-01T08:46:17;4.30;;;1.50;;
58518;SDS011;44310;48.106;12.008;2023-03-01T08:48:44;2.85;;;1.60;;
58518;SDS011;44310;48.106;12.008;2023-03-01T08:53:41;5.10;;;1.75;;
58518;SDS011;44310;48.106;12.008;2023-03-01T08:56:09;8.35;;;2.47;;
58518;SDS011;44310;48.106;12.008;2023-03-01T08:58:37;8.25;;;2.28;;
58518;SDS011;44310;48.106;12.008;2023-03-01T09:01:10;7.47;;;2.45;;
58518;SDS011;44310;48.106;12.008;2023-03-01T09:03:38;4.80;;;2.00;;
58518;SDS011;44310;48.106;12.008;2023-03-01T09:06:06;6.30;;;2.00;;
58518;SDS011;44310;48.106;12.008;2023-03-01T09:08:34;3.85;;;1.50;;
58518;SDS011;44310;48.106;12.008;2023-03-01T09:11:04;4.30;;;1.70;;
58518;SDS011;44310;48.106;12.008;2023-03-01T09:13:32;4.63;;;1.80;;
58518;SDS011;44310;48.106;12.008;2023-03-01T09:16:00;4.93;;;1.60;;
58518;SDS011;44310;48.106;12.008;2023-03-01T09:18:29;4.13;;;1.60;;
58518;SDS011;44310;48.106;12.008;2023-03-01T09:21:00;11.05;;;2.80;;
58518;SDS011;44310;48.106;12.008;2023-03-01T09:23:36;7.40;;;2.60;;
58518;SDS011;44310;48.106;12.008;2023-03-01T09:26:06;9.85;;;2.35;;
58518;SDS011;44310;48.106;12.008;2023-03-01T09:28:35;7.65;;;2.53;;
58518;SDS011;44310;48.106;12.008;2023-03-01T09:31:03;10.75;;;2.60;;
58518;SDS011;44310;48.106;12.008;2023-03-01T09:33:31;6.53;;;2.10;;
58518;SDS011;44310;48.106;12.008;2023-03-01T09:36:00;4.85;;;2.00;;
58518;SDS011;44310;48.106;12.008;2023-03-01T09:38:30;7.75;;;2.20;;
58518;SDS011;44310;48.106;12.008;2023-03-01T09:40:58;15.67;;;3.00;;
58518;SDS011;44310;48.106;12.008;2023-03-01T09:43:32;17.33;;;4.50;;
58518;SDS011;44310;48.106;12.008;2023-03-01T09:46:05;18.20;;;3.60;;
58518;SDS011;44310;48.106;12.008;2023-03-01T09:48:47;10.05;;;3.20;;
58518;SDS011;44310;48.106;12.008;2023-03-01T09:51:19;12.50;;;3.77;;
58518;SDS011;44310;48.106;12.008;2023-03-01T09:53:56;12.88;;;3.53;;
58518;SDS011;44310;48.106;12.008;2023-03-01T09:56:30;16.97;;;4.57;;
58518;SDS011;44310;48.106;12.008;2023-03-01T10:04:24;18.25;;;4.38;;
58518;SDS011;44310;48.106;12.008;2023-03-01T10:07:05;24.00;;;5.47;;
58518;SDS011;44310;48.106;12.008;2023-03-01T10:09:38;61.42;;;10.45;;
58518;SDS011;44310;48.106;12.008;2023-03-01T10:12:22;25.85;;;5.57;;
58518;SDS011;44310;48.106;12.008;2023-03-01T10:15:04;15.80;;;3.58;;
58518;SDS011;44310;48.106;12.008;2023-03-01T10:20:16;15.07;;;3.67;;
58518;SDS011;44310;48.106;12.008;2023-03-01T10:22:46;16.75;;;4.25;;
58518;SDS011;44310;48.106;12.008;2023-03-01T10:25:29;23.52;;;5.45;;
58518;SDS011;44310;48.106;12.008;2023-03-01T10:28:16;8.85;;;3.05;;
58518;SDS011;44310;48.106;12.008;2023-03-01T10:30:47;5.68;;;2.50;;
58518;SDS011;44310;48.106;12.008;2023-03-01T10:33:16;8.75;;;3.00;;
58518;SDS011;44310;48.106;12.008;2023-03-01T10:35:49;16.17;;;3.80;;
58518;SDS011;44310;48.106;12.008;2023-03-01T10:38:17;26.77;;;5.60;;
58518;SDS011;44310;48.106;12.008;2023-03-01T10:40:53;18.83;;;4.57;;
58518;SDS011;44310;48.106;12.008;2023-03-01T10:43:26;27.40;;;5.77;;
58518;SDS011;44310;48.106;12.008;2023-03-01T10:46:22;19.73;;;4.22;;
58518;SDS011;44310;48.106;12.008;2023-03-01T10:51:49;13.75;;;3.67;;
58518;SDS011;44310;48.106;12.008;2023-03-01T10:54:22;16.67;;;4.40;;
58518;SDS011;44310;48.106;12.008;2023-03-01T10:56:54;16.30;;;4.80;;
58518;SDS011;44310;48.106;12.008;2023-03-01T10:59:30;16.58;;;4.43;;
58518;SDS011;44310;48.106;12.008;2023-03-01T11:05:02;13.98;;;3.95;;
58518;SDS011;44310;48.106;12.008;2023-03-01T11:07:56;11.55;;;3.25;;
58518;SDS011;44310;48.106;12.008;2023-03-01T11:10:27;8.63;;;3.00;;
58518;SDS011;44310;48.106;12.008;2023-03-01T11:13:07;18.15;;;4.57;;
58518;SDS011;44310;48.106;12.008;2023-03-01T11:15:42;12.68;;;3.70;;
58518;SDS011;44310;48.106;12.008;2023-03-01T11:18:22;13.37;;;3.30;;
58518;SDS011;44310;48.106;12.008;2023-03-01T11:21:02;10.27;;;3.05;;
58518;SDS011;44310;48.106;12.008;2023-03-01T11:23:31;11.02;;;3.00;;
58518;SDS011;44310;48.106;12.008;2023-03-01T11:26:01;11.90;;;3.00;;
58518;SDS011;44310;48.106;12.008;2023-03-01T11:28:32;12.55;;;3.15;;
58518;SDS011;44310;48.106;12.008;2023-03-01T11:31:08;8.70;;;2.60;;
58518;SDS011;44310;48.106;12.008;2023-03-01T11:33:49;15.52;;;4.03;;
58518;SDS011;44310;48.106;12.008;2023-03-01T11:42:00;18.08;;;4.97;;
58518;SDS011;44310;48.106;12.008;2023-03-01T11:44:45;19.33;;;4.97;;
58518;SDS011;44310;48.106;12.008;2023-03-01T11:49:57;16.25;;;4.18;;
58518;SDS011;44310;48.106;12.008;2023-03-01T11:55:51;10.53;;;3.40;;
58518;SDS011;44310;48.106;12.008;2023-03-01T12:04:16;4.63;;;2.20;;
58518;SDS011;44310;48.106;12.008;2023-03-01T12:09:37;3.17;;;2.00;;
58518;SDS011;44310;48.106;12.008;2023-03-01T12:12:09;5.90;;;1.90;;
58518;SDS011;44310;48.106;12.008;2023-03-01T12:34:19;8.20;;;2.23;;
58518;SDS011;44310;48.106;12.008;2023-03-01T12:37:13;16.08;;;3.45;;
58518;SDS011;44310;48.106;12.008;2023-03-01T12:51:08;7.63;;;2.33;;
58518;SDS011;44310;48.106;12.008;2023-03-01T12:53:48;7.05;;;2.20;;
58518;SDS011;44310;48.106;12.008;2023-03-01T12:56:19;5.77;;;2.47;;
58518;SDS011;44310;48.106;12.008;2023-03-01T12:59:09;7.93;;;2.05;;
58518;SDS011;44310;48.106;12.008;2023-03-01T13:01:45;9.57;;;2.70;;
58518;SDS011;44310;48.106;12.008;2023-03-01T13:10:15;6.15;;;2.15;;
58518;SDS011;44310;48.106;12.008;2023-03-01T13:12:52;7.85;;;2.40;;
58518;SDS011;44310;48.106;12.008;2023-03-01T13:17:53;6.50;;;2.00;;
58518;SDS011;44310;48.106;12.008;2023-03-01T13:20:32;6.53;;;2.20;;
58518;SDS011;44310;48.106;12.008;2023-03-01T13:28:40;4.83;;;2.30;;
58518;SDS011;44310;48.106;12.008;2023-03-01T13:34:01;5.37;;;1.90;;
58518;SDS011;44310;48.106;12.008;2023-03-01T13:39:03;8.40;;;2.50;;
58518;SDS011;44310;48.106;12.008;2023-03-01T13:46:51;8.05;;;2.38;;
58518;SDS011;44310;48.106;12.008;2023-03-01T13:49:34;10.20;;;3.00;;
58518;SDS011;44310;48.106;12.008;2023-03-01T13:55:06;7.27;;;2.33;;
58518;SDS011;44310;48.106;12.008;2023-03-01T13:57:41;5.78;;;2.15;;
58518;SDS011;44310;48.106;12.008;2023-03-01T14:00:25;6.50;;;2.00;;
58518;SDS011;44310;48.106;12.008;2023-03-01T14:03:40;6.28;;;2.35;;
58518;SDS011;44310;48.106;12.008;2023-03-01T14:06:06;4.33;;;1.77;;
58518;SDS011;44310;48.106;12.008;2023-03-01T14:08:47;3.33;;;1.60;;
58518;SDS011;44310;48.106;12.008;2023-03-01T14:14:08;6.13;;;1.80;;
58518;SDS011;44310;48.106;12.008;2023-03-01T14:16:59;5.00;;;1.80;;
58518;SDS011;44310;48.106;12.008;2023-03-01T14:19:54;4.88;;;1.92;;
58518;SDS011;44310;48.106;12.008;2023-03-01T14:22:24;5.15;;;1.80;;
58518;SDS011;44310;48.106;12.008;2023-03-01T14:25:06;5.15;;;1.75;;
58518;SDS011;44310;48.106;12.008;2023-03-01T14:27:55;5.15;;;1.60;;
58518;SDS011;44310;48.106;12.008;2023-03-01T14:30:42;3.00;;;1.35;;
58518;SDS011;44310;48.106;12.008;2023-03-01T14:33:21;2.45;;;1.50;;
58518;SDS011;44310;48.106;12.008;2023-03-01T14:35:58;2.30;;;1.40;;
58518;SDS011;44310;48.106;12.008;2023-03-01T14:38:46;6.55;;;2.20;;
58518;SDS011;44310;48.106;12.008;2023-03-01T14:41:15;6.43;;;2.03;;
58518;SDS011;44310;48.106;12.008;2023-03-01T14:43:47;4.15;;;1.50;;
58518;SDS011;44310;48.106;12.008;2023-03-01T14:46:32;5.90;;;2.10;;
58518;SDS011;44310;48.106;12.008;2023-03-01T14:49:05;7.05;;;2.00;;
58518;SDS011;44310;48.106;12.008;2023-03-01T14:51:39;4.80;;;2.20;;
58518;SDS011;44310;48.106;12.008;2023-03-01T14:54:23;26.77;;;5.45;;
58518;SDS011;44310;48.106;12.008;2023-03-01T14:56:53;45.92;;;8.20;;
58518;SDS011;44310;48.106;12.008;2023-03-01T14:59:24;36.83;;;7.70;;
58518;SDS011;44310;48.106;12.008;2023-03-01T15:01:53;45.50;;;8.77;;
58518;SDS011;44310;48.106;12.008;2023-03-01T15:04:23;33.87;;;7.37;;
58518;SDS011;44310;48.106;12.008;2023-03-01T15:06:52;36.83;;;7.85;;
58518;SDS011;44310;48.106;12.008;2023-03-01T15:09:21;33.97;;;6.70;;
58518;SDS011;44310;48.106;12.008;2023-03-01T15:11:49;24.65;;;5.82;;
58518;SDS011;44310;48.106;12.008;2023-03-01T15:14:26;35.83;;;7.45;;
58518;SDS011;44310;48.106;12.008;2023-03-01T15:16:55;39.85;;;8.57;;
58518;SDS011;44310;48.106;12.008;2023-03-01T15:19:23;41.35;;;7.97;;
58518;SDS011;44310;48.106;12.008;2023-03-01T15:21:54;33.72;;;7.38;;
58518;SDS011;44310;48.106;12.008;2023-03-01T15:24:23;34.15;;;7.75;;
58518;SDS011;44310;48.106;12.008;2023-03-01T15:26:56;38.88;;;7.53;;
58518;SDS011;44310;48.106;12.008;2023-03-01T15:29:28;32.40;;;7.28;;
58518;SDS011;44310;48.106;12.008;2023-03-01T15:34:49;29.70;;;7.20;;
58518;SDS011;44310;48.106;12.008;2023-03-01T15:40:29;30.20;;;6.88;;
58518;SDS011;44310;48.106;12.008;2023-03-01T15:43:06;30.65;;;7.03;;
58518;SDS011;44310;48.106;12.008;2023-03-01T15:46:00;29.02;;;6.70;;
58518;SDS011;44310;48.106;12.008;2023-03-01T15:48:27;25.63;;;6.53;;
58518;SDS011;44310;48.106;12.008;2023-03-01T15:50:55;26.33;;;5.68;;
58518;SDS011;44310;48.106;12.008;2023-03-01T15:53:24;25.98;;;5.85;;
58518;SDS011;44310;48.106;12.008;2023-03-01T15:55:54;25.48;;;6.03;;
58518;SDS011;44310;48.106;12.008;2023-03-01T15:58:25;22.58;;;6.10;;
58518;SDS011;44310;48.106;12.008;2023-03-01T16:00:52;61.55;;;12.38;;
58518;SDS011;44310;48.106;12.008;2023-03-01T16:03:27;39.47;;;8.27;;
58518;SDS011;44310;48.106;12.008;2023-03-01T16:05:55;43.65;;;9.60;;
58518;SDS011;44310;48.106;12.008;2023-03-01T16:08:22;28.23;;;6.73;;
58518;SDS011;44310;48.106;12.008;2023-03-01T16:10:49;25.92;;;6.28;;
58518;SDS011;44310;48.106;12.008;2023-03-01T16:13:18;30.90;;;7.00;;
58518;SDS011;44310;48.106;12.008;2023-03-01T16:15:46;26.60;;;6.05;;
58518;SDS011;44310;48.106;12.008;2023-03-01T16:18:13;23.97;;;5.37;;
58518;SDS011;44310;48.106;12.008;2023-03-01T16:20:40;16.38;;;4.20;;
58518;SDS011;44310;48.106;12.008;2023-03-01T16:23:09;18.33;;;4.10;;
58518;SDS011;44310;48.106;12.008;2023-03-01T16:25:37;18.47;;;4.87;;
58518;SDS011;44310;48.106;12.008;2023-03-01T16:28:04;16.58;;;4.15;;
58518;SDS011;44310;48.106;12.008;2023-03-01T16:30:36;16.42;;;4.28;;
58518;SDS011;44310;48.106;12.008;2023-03-01T16:33:04;13.80;;;4.07;;
58518;SDS011;44310;48.106;12.008;2023-03-01T16:35:50;14.15;;;4.18;;
58518;SDS011;44310;48.106;12.008;2023-03-01T16:38:17;9.33;;;3.30;;
58518;SDS011;44310;48.106;12.008;2023-03-01T16:40:46;9.32;;;2.97;;
58518;SDS011;44310;48.106;12.008;2023-03-01T16:43:15;6.97;;;2.85;;
58518;SDS011;44310;48.106;12.008;2023-03-01T16:45:42;8.10;;;2.50;;
58518;SDS011;44310;48.106;12.008;2023-03-01T16:48:11;7.35;;;2.65;;